Time;durP1;ratioP1;P1;durP2;ratioP2;P2;SDS_P1;SDS_P2;PMS_P1;PMS_P2;Temp;Humidity;BMP_temperature;BMP_pressure;BME280_temperature;BME280_humidity;BME280_pressure;Samples;Min_cycle;Max_cycle;Signal;HPM_P1;HPM_P2
2021/05/09 00:00:56;;;;;;;1.60;1.50;;;;;;;14.74;62.01;95952.25;5072548;28;20437;-67
2021/05/09 00:03:22;;;;;;;1.80;1.43;;;;;;;14.74;61.97;95954.09;5073000;28;20624;-60
2021/05/09 00:05:48;;;;;;;1.47;1.37;;;;;;;14.69;62.51;95952.22;5062014;28;20206;-60
2021/05/09 00:08:14;;;;;;;1.60;1.50;;;;;;;14.81;62.00;95944.84;5052493;28;20410;-60
2021/05/09 00:10:40;;;;;;;1.70;1.60;;;;;;;14.80;62.23;95945.88;5052895;28;20329;-60
2021/05/09 00:13:06;;;;;;;1.60;1.50;;;;;;;14.89;61.64;95946.19;5052935;28;20474;-67
2021/05/09 00:15:31;;;;;;;1.50;1.40;;;;;;;14.84;61.81;95933.72;5052766;28;20513;-60
2021/05/09 00:17:56;;;;;;;1.97;1.80;;;;;;;14.78;62.15;95936.63;5066033;28;20574;-62
2021/05/09 00:20:22;;;;;;;1.60;1.50;;;;;;;14.79;62.34;95932.91;5074026;28;20293;-67
2021/05/09 00:22:47;;;;;;;1.60;1.50;;;;;;;14.77;62.46;95922.59;5076576;28;20182;-60
2021/05/09 00:25:13;;;;;;;3.50;1.53;;;;;;;14.67;62.68;95921.81;5057249;28;20183;-67
2021/05/09 00:27:42;;;;;;;1.50;1.40;;;;;;;14.57;63.69;95922.56;5056090;28;20250;-59
2021/05/09 00:30:10;;;;;;;1.70;1.60;;;;;;;14.80;63.14;95916.00;5056976;28;20210;-59
2021/05/09 00:32:35;;;;;;;1.37;1.37;;;;;;;14.77;62.93;95914.69;5056222;28;20440;-67
2021/05/09 00:35:02;;;;;;;1.77;1.67;;;;;;;15.01;62.07;95899.09;5056466;28;20413;-67
2021/05/09 00:37:27;;;;;;;2.63;1.40;;;;;;;15.11;61.53;95899.88;5055905;28;20689;-60
2021/05/09 00:39:53;;;;;;;2.60;1.70;;;;;;;15.13;61.45;95903.06;5056242;28;20529;-60
2021/05/09 00:42:18;;;;;;;1.67;1.57;;;;;;;15.39;60.45;95901.19;5056274;28;20163;-60
2021/05/09 00:44:44;;;;;;;1.30;1.20;;;;;;;15.34;60.20;95894.03;5057380;28;20634;-60
2021/05/09 00:47:12;;;;;;;1.80;1.70;;;;;;;15.49;60.12;95890.59;5055719;28;20278;-67
2021/05/09 00:49:38;;;;;;;1.53;1.43;;;;;;;15.59;60.11;95895.91;5055733;28;20211;-66
2021/05/09 00:52:05;;;;;;;1.60;1.50;;;;;;;15.73;59.25;95891.63;5056005;28;20899;-60
2021/05/09 00:54:32;;;;;;;1.53;1.43;;;;;;;15.84;59.24;95890.53;5056106;28;20975;-60
2021/05/09 00:56:58;;;;;;;1.60;1.50;;;;;;;15.78;59.00;95886.28;5056379;28;20454;-59
2021/05/09 00:59:28;;;;;;;1.37;1.27;;;;;;;15.86;58.86;95890.25;5075677;28;20452;-67
2021/05/09 01:01:54;;;;;;;1.40;1.30;;;;;;;16.01;58.61;95885.72;5075842;28;20170;-67
2021/05/09 01:04:21;;;;;;;1.53;1.23;;;;;;;16.26;57.86;95884.78;5075806;28;20405;-60
2021/05/09 01:06:46;;;;;;;1.60;1.50;;;;;;;16.21;59.17;95885.63;5075830;28;20487;-67
2021/05/09 01:09:12;;;;;;;1.90;1.70;;;;;;;16.33;58.66;95883.44;5074323;28;20611;-67
2021/05/09 01:11:38;;;;;;;1.83;1.73;;;;;;;16.35;59.12;95875.22;5073762;28;20187;-67
2021/05/09 01:14:04;;;;;;;1.80;1.70;;;;;;;16.39;59.05;95879.72;5075485;28;20171;-60
2021/05/09 01:16:30;;;;;;;3.47;1.70;;;;;;;16.28;58.03;95875.50;5075836;28;20194;-60
2021/05/09 01:18:55;;;;;;;1.60;1.50;;;;;;;15.79;59.24;95873.84;5075062;28;20915;-60
2021/05/09 01:21:21;;;;;;;2.07;1.67;;;;;;;15.94;58.71;95869.28;5075300;28;20175;-67
2021/05/09 01:23:46;;;;;;;1.60;1.50;;;;;;;16.09;58.32;95868.44;5074570;28;20676;-67
2021/05/09 01:26:11;;;;;;;1.87;1.77;;;;;;;15.91;58.70;95867.19;5073550;28;20269;-60
2021/05/09 01:28:37;;;;;;;1.40;1.30;;;;;;;15.89;59.57;95869.31;5072247;28;20579;-60
2021/05/09 01:31:02;;;;;;;2.23;1.90;;;;;;;16.01;59.39;95866.34;5071500;28;20197;-67
2021/05/09 01:33:28;;;;;;;1.67;1.57;;;;;;;16.04;60.09;95861.31;5069880;28;20189;-68
2021/05/09 01:35:53;;;;;;;2.33;1.50;;;;;;;16.08;60.09;95859.69;5064022;28;20706;-67
2021/05/09 01:38:19;;;;;;;1.77;1.67;;;;;;;16.21;60.41;95863.63;5073403;28;20177;-68
2021/05/09 01:40:44;;;;;;;2.53;1.60;;;;;;;16.24;60.21;95860.41;5074846;28;20237;-68
2021/05/09 01:43:09;;;;;;;1.60;1.50;;;;;;;16.15;60.64;95862.84;5075167;28;20167;-60
2021/05/09 01:45:35;;;;;;;2.50;1.80;;;;;;;16.22;60.72;95867.84;5071485;28;20235;-61
2021/05/09 01:48:00;;;;;;;1.57;1.47;;;;;;;16.21;60.77;95877.69;5074479;28;20219;-60
2021/05/09 01:50:26;;;;;;;2.07;1.80;;;;;;;16.18;60.84;95867.59;5073767;28;20541;-60
2021/05/09 01:52:51;;;;;;;1.60;1.50;;;;;;;16.06;61.37;95872.44;5073158;28;20258;-67
2021/05/09 01:55:21;;;;;;;1.87;1.77;;;;;;;15.96;61.59;95872.47;5074802;28;20257;-67
2021/05/09 01:57:47;;;;;;;1.57;1.43;;;;;;;15.88;62.11;95870.38;5074503;28;20178;-60
2021/05/09 02:00:16;;;;;;;2.50;1.90;;;;;;;15.81;61.89;95869.09;5074575;28;20425;-60
2021/05/09 02:02:42;;;;;;;1.83;1.73;;;;;;;15.74;62.73;95869.38;5074671;28;20201;-60
2021/05/09 02:05:08;;;;;;;1.90;1.80;;;;;;;15.74;63.22;95874.69;5073862;28;20457;-60
2021/05/09 02:07:34;;;;;;;2.77;1.83;;;;;;;15.68;63.26;95872.28;5074254;28;20192;-61
2021/05/09 02:10:00;;;;;;;4.43;2.20;;;;;;;15.62;63.26;95862.78;5074405;28;20538;-61
2021/05/09 02:12:26;;;;;;;1.80;1.70;;;;;;;15.60;63.33;95860.38;5072700;28;20426;-60
2021/05/09 02:14:53;;;;;;;2.23;2.03;;;;;;;15.52;64.27;95868.91;5074357;28;20469;-60
2021/05/09 02:17:20;;;;;;;2.10;1.90;;;;;;;15.48;63.54;95865.19;5073978;28;20408;-67
2021/05/09 02:19:46;;;;;;;1.60;1.50;;;;;;;15.43;64.58;95860.72;5073354;28;20567;-60
2021/05/09 02:22:12;;;;;;;1.87;1.77;;;;;;;15.32;64.53;95860.97;5074126;28;20915;-60
2021/05/09 02:24:37;;;;;;;1.90;1.80;;;;;;;15.27;64.69;95861.75;5055924;28;20523;-60
2021/05/09 02:27:03;;;;;;;2.80;1.80;;;;;;;15.20;65.27;95860.47;5053766;28;20217;-67
2021/05/09 02:29:28;;;;;;;2.30;2.20;;;;;;;15.24;64.98;95854.34;5054274;28;20559;-60
2021/05/09 02:31:54;;;;;;;2.20;2.00;;;;;;;15.16;65.71;95856.75;5054350;28;20522;-67
2021/05/09 02:34:20;;;;;;;1.73;1.63;;;;;;;15.17;65.40;95866.25;5054353;28;20263;-60
2021/05/09 02:36:45;;;;;;;3.23;2.20;;;;;;;15.12;65.05;95853.84;5054100;28;20622;-66
2021/05/09 02:39:12;;;;;;;2.10;2.00;;;;;;;15.17;64.61;95859.13;5053487;28;20417;-60
2021/05/09 02:41:38;;;;;;;1.90;1.80;;;;;;;15.19;64.60;95861.50;5052662;28;20198;-60
2021/05/09 02:44:04;;;;;;;2.07;1.97;;;;;;;15.01;65.09;95854.09;5053894;28;20896;-60
2021/05/09 02:46:29;;;;;;;1.90;1.80;;;;;;;14.87;64.78;95858.34;5053900;28;20175;-67
2021/05/09 02:48:55;;;;;;;1.80;1.70;;;;;;;14.77;64.57;95858.31;5053801;28;20504;-67
2021/05/09 02:51:20;;;;;;;3.00;1.93;;;;;;;14.81;65.35;95862.03;5061690;28;20187;-66
2021/05/09 02:53:46;;;;;;;2.47;2.27;;;;;;;14.79;65.18;95857.03;5053788;28;20589;-59
2021/05/09 02:56:11;;;;;;;2.30;2.10;;;;;;;14.81;64.62;95860.19;5053668;28;20618;-67
2021/05/09 02:58:36;;;;;;;2.73;1.90;;;;;;;14.61;65.38;95868.13;5053204;28;20178;-60
2021/05/09 03:01:02;;;;;;;2.50;2.10;;;;;;;14.56;66.07;95864.66;5053820;28;20190;-59
2021/05/09 03:03:28;;;;;;;2.83;2.63;;;;;;;14.58;67.03;95857.28;5053650;28;20167;-60
2021/05/09 03:05:53;;;;;;;2.93;2.20;;;;;;;14.79;66.58;95857.03;5054470;28;20467;-67
2021/05/09 03:08:18;;;;;;;2.60;2.40;;;;;;;14.78;66.24;95849.34;5053263;28;20184;-67
2021/05/09 03:10:44;;;;;;;2.57;2.20;;;;;;;14.88;65.78;95854.63;5070150;28;20255;-60
2021/05/09 03:13:09;;;;;;;2.43;2.23;;;;;;;14.87;65.62;95853.88;5073678;28;20503;-67
2021/05/09 03:15:35;;;;;;;2.10;2.00;;;;;;;14.86;65.81;95854.09;5073720;28;20304;-60
2021/05/09 03:18:01;;;;;;;2.90;2.30;;;;;;;14.84;65.83;95862.31;5073185;28;20171;-67
2021/05/09 03:20:26;;;;;;;2.33;2.13;;;;;;;14.77;65.87;95858.31;5058718;28;20195;-67
2021/05/09 03:22:51;;;;;;;2.63;2.43;;;;;;;14.80;65.71;95853.31;5053462;28;20580;-60
2021/05/09 03:25:17;;;;;;;2.20;2.00;;;;;;;14.63;65.63;95859.91;5053553;28;20180;-66
2021/05/09 03:27:42;;;;;;;4.23;2.37;;;;;;;14.73;66.40;95852.78;5052873;28;20174;-60
2021/05/09 03:30:09;;;;;;;2.20;2.10;;;;;;;14.86;66.30;95843.53;5051913;28;20218;-67
2021/05/09 03:32:34;;;;;;;2.67;2.10;;;;;;;14.81;67.03;95846.16;5057531;28;20653;-59
2021/05/09 03:35:00;;;;;;;2.67;2.47;;;;;;;14.78;67.02;95842.22;5073239;28;20413;-67
2021/05/09 03:37:25;;;;;;;3.50;2.60;;;;;;;14.76;67.03;95848.81;5072978;28;20240;-67
2021/05/09 03:39:50;;;;;;;2.60;2.40;;;;;;;14.79;66.80;95843.00;5073180;28;20680;-66
2021/05/09 03:42:16;;;;;;;3.33;3.00;;;;;;;14.84;66.45;95845.66;5073098;28;20585;-60
2021/05/09 03:44:41;;;;;;;2.63;2.43;;;;;;;14.78;66.72;95849.34;5073409;28;20179;-60
2021/05/09 03:47:06;;;;;;;3.20;3.00;;;;;;;14.78;67.62;95842.22;5070582;28;20175;-67
2021/05/09 03:49:32;;;;;;;2.40;2.20;;;;;;;14.81;67.70;95836.41;5072903;28;20270;-66
2021/05/09 03:51:57;;;;;;;27.57;2.80;;;;;;;14.81;67.67;95830.31;5074242;28;20633;-67
2021/05/09 03:54:23;;;;;;;6.97;2.20;;;;;;;14.81;67.90;95838.22;5077232;28;20171;-67
2021/05/09 03:56:48;;;;;;;2.77;2.47;;;;;;;14.79;68.20;95830.56;5077194;28;20177;-60
2021/05/09 03:59:13;;;;;;;2.27;2.17;;;;;;;14.67;68.63;95827.41;5076645;28;20191;-66
2021/05/09 04:01:39;;;;;;;2.20;2.10;;;;;;;14.60;68.66;95832.16;5074334;28;20202;-67
2021/05/09 04:04:04;;;;;;;2.60;2.40;;;;;;;14.60;68.74;95831.34;5062547;28;20187;-60
2021/05/09 04:06:30;;;;;;;2.17;1.80;;;;;;;14.31;70.17;95831.84;5074077;28;20190;-67
2021/05/09 04:08:55;;;;;;;2.27;2.10;;;;;;;14.34;70.01;95836.63;5076229;28;20225;-60
2021/05/09 04:11:21;;;;;;;2.40;2.20;;;;;;;14.48;69.99;95831.59;5076743;28;20230;-60
2021/05/09 04:13:47;;;;;;;2.70;1.87;;;;;;;14.51;70.11;95830.28;5076738;28;20529;-60
2021/05/09 04:16:13;;;;;;;2.57;2.10;;;;;;;14.55;69.38;95826.84;5066026;28;20175;-67
2021/05/09 04:18:38;;;;;;;2.17;1.97;;;;;;;14.54;69.21;95827.91;5055987;28;20414;-60
2021/05/09 04:21:04;;;;;;;2.47;2.27;;;;;;;14.59;69.31;95827.91;5056622;28;20514;-67
2021/05/09 04:23:30;;;;;;;2.07;1.97;;;;;;;14.61;69.03;95819.72;5057212;28;20187;-67
2021/05/09 04:25:55;;;;;;;1.97;1.87;;;;;;;14.67;68.78;95826.59;5056657;28;20412;-60
2021/05/09 04:28:21;;;;;;;2.83;1.90;;;;;;;14.69;68.79;95822.66;5056284;28;20534;-67
2021/05/09 04:30:47;;;;;;;2.70;2.50;;;;;;;14.74;69.65;95819.19;5056878;28;20564;-67
2021/05/09 04:33:13;;;;;;;5.23;2.10;;;;;;;14.82;69.49;95821.31;5056465;28;20183;-67
2021/05/09 04:35:42;;;;;;;2.10;2.00;;;;;;;14.77;69.67;95819.47;5056324;28;20413;-67
2021/05/09 04:38:08;;;;;;;2.60;2.37;;;;;;;14.80;69.63;95818.16;5055881;28;20638;-67
2021/05/09 04:40:33;;;;;;;2.73;2.17;;;;;;;14.72;70.62;95816.81;5062083;28;20461;-68
2021/05/09 04:43:12;;;;;;;2.33;2.10;;;;;;;14.70;70.27;95818.13;5075930;28;20183;-67
2021/05/09 04:45:38;;;;;;;2.23;2.03;;;;;;;14.53;71.62;95821.03;5056388;28;20262;-66
2021/05/09 04:48:05;;;;;;;2.40;2.30;;;;;;;14.68;71.03;95815.75;5055627;28;20844;-59
2021/05/09 04:50:31;;;;;;;2.20;2.10;;;;;;;14.80;70.58;95813.63;5055657;28;20280;-67
2021/05/09 04:52:56;;;;;;;3.33;2.60;;;;;;;14.76;70.87;95812.59;5055820;28;20421;-67
2021/05/09 04:55:22;;;;;;;1.87;1.77;;;;;;;14.78;70.80;95814.97;5055949;28;20431;-60
2021/05/09 04:57:47;;;;;;;2.77;2.27;;;;;;;14.81;71.05;95809.13;5056571;28;20254;-67
2021/05/09 05:00:14;;;;;;;2.30;2.10;;;;;;;14.74;71.18;95806.78;5055803;28;20191;-59
2021/05/09 05:02:47;;;;;;;2.20;2.10;;;;;;;14.79;71.35;95812.06;5055469;28;20174;-60
2021/05/09 05:05:14;;;;;;;2.33;2.23;;;;;;;14.83;71.23;95814.97;5063889;28;20429;-67
2021/05/09 05:07:39;;;;;;;2.03;1.93;;;;;;;14.91;71.23;95817.09;5073560;28;20490;-60
2021/05/09 05:10:07;;;;;;;2.10;2.00;;;;;;;14.90;71.57;95811.00;5074734;28;20461;-60
2021/05/09 05:12:32;;;;;;;1.83;1.73;;;;;;;14.90;71.79;95812.84;5067742;28;20185;-64
2021/05/09 05:14:58;;;;;;;1.90;1.80;;;;;;;14.98;71.29;95817.59;5055993;28;20422;-60
2021/05/09 05:17:23;;;;;;;2.10;1.93;;;;;;;15.00;71.39;95818.91;5055154;28;20233;-67
2021/05/09 05:19:49;;;;;;;1.97;1.87;;;;;;;14.97;71.41;95816.81;5055306;28;20187;-60
2021/05/09 05:22:14;;;;;;;1.87;1.77;;;;;;;14.99;71.47;95813.88;5055429;28;20221;-60
2021/05/09 05:24:40;;;;;;;2.27;2.07;;;;;;;14.98;71.52;95815.72;5055729;28;20172;-65
2021/05/09 05:27:05;;;;;;;1.93;1.83;;;;;;;15.03;71.38;95822.88;5074882;28;20190;-61
2021/05/09 05:29:30;;;;;;;3.07;2.30;;;;;;;15.12;71.68;95821.28;5075163;28;20199;-67
2021/05/09 05:31:56;;;;;;;2.00;1.90;;;;;;;15.16;71.37;95825.75;5075370;28;20526;-59
2021/05/09 05:34:21;;;;;;;3.67;2.40;;;;;;;15.20;71.46;95828.69;5074869;28;20258;-67
2021/05/09 05:36:47;;;;;;;2.07;1.97;;;;;;;15.20;71.74;95820.75;5075038;28;20626;-67
2021/05/09 05:39:13;;;;;;;2.60;2.30;;;;;;;15.25;71.52;95818.09;5074335;28;20256;-66
2021/05/09 05:41:39;;;;;;;2.33;2.23;;;;;;;15.28;71.50;95823.66;5055277;28;20176;-67
2021/05/09 05:44:06;;;;;;;2.33;2.17;;;;;;;15.32;71.47;95814.13;5055139;28;20406;-67
2021/05/09 05:46:31;;;;;;;2.10;2.00;;;;;;;15.39;71.19;95819.13;5055042;28;20416;-67
2021/05/09 05:48:57;;;;;;;2.33;2.10;;;;;;;15.43;71.62;95817.56;5054338;28;20462;-60
2021/05/09 05:51:23;;;;;;;2.30;2.10;;;;;;;15.49;71.46;95816.47;5054781;28;20179;-60
2021/05/09 05:53:48;;;;;;;2.47;2.27;;;;;;;15.54;71.07;95816.47;5055934;28;20779;-67
2021/05/09 05:56:14;;;;;;;1.90;1.77;;;;;;;15.60;71.14;95818.00;5055047;28;20183;-67
2021/05/09 05:58:40;;;;;;;3.43;2.33;;;;;;;15.66;70.83;95806.34;5054291;28;20175;-60
2021/05/09 06:01:05;;;;;;;2.10;2.00;;;;;;;15.72;70.46;95815.88;5054676;28;20254;-66
2021/05/09 06:03:31;;;;;;;2.60;1.93;;;;;;;15.80;70.42;95811.88;5054499;28;20182;-60
2021/05/09 06:05:57;;;;;;;2.10;1.93;;;;;;;15.86;70.30;95811.56;5054598;28;20171;-60
2021/05/09 06:08:23;;;;;;;2.13;2.03;;;;;;;15.95;69.83;95815.22;5055099;28;20713;-60
2021/05/09 06:10:49;;;;;;;1.97;1.77;;;;;;;16.02;69.89;95804.31;5054626;28;20512;-67
2021/05/09 06:13:14;;;;;;;2.50;2.23;;;;;;;16.08;69.47;95812.00;5054526;28;20888;-60
2021/05/09 06:15:40;;;;;;;2.10;2.00;;;;;;;16.15;69.31;95809.84;5054021;28;20225;-60
2021/05/09 06:18:06;;;;;;;1.97;1.87;;;;;;;16.22;69.06;95812.97;5053837;28;20167;-67
2021/05/09 06:20:32;;;;;;;1.80;1.70;;;;;;;16.28;68.80;95825.13;5054251;28;20676;-60
2021/05/09 06:22:58;;;;;;;1.90;1.80;;;;;;;16.36;68.26;95813.94;5055309;28;20183;-66
2021/05/09 06:25:24;;;;;;;2.60;2.00;;;;;;;16.45;68.23;95808.84;5057235;28;20418;-60
2021/05/09 06:27:50;;;;;;;5.60;2.27;;;;;;;16.53;67.74;95810.13;5063578;28;20772;-67
2021/05/09 06:30:16;;;;;;;3.00;1.80;;;;;;;16.51;64.74;95810.41;5073827;28;20457;-67
2021/05/09 06:32:41;;;;;;;1.57;1.47;;;;;;;16.60;64.01;95802.66;5073957;28;20420;-67
2021/05/09 06:35:07;;;;;;;3.80;2.90;;;;;;;16.48;59.34;95807.53;5074015;28;20648;-67
2021/05/09 06:37:34;;;;;;;2.37;1.90;;;;;;;16.60;58.64;95805.31;5055938;28;20175;-67
2021/05/09 06:40:00;;;;;;;1.60;1.50;;;;;;;16.67;56.24;95800.50;5053760;28;20194;-66
2021/05/09 06:42:25;;;;;;;1.20;1.20;;;;;;;16.84;55.71;95800.88;5054085;28;20414;-60
2021/05/09 06:44:56;;;;;;;1.00;1.00;;;;;;;17.13;54.43;95802.47;5053976;28;20414;-60
2021/05/09 06:47:21;;;;;;;1.90;1.30;;;;;;;17.36;53.14;95796.41;5060211;28;20167;-60
2021/05/09 06:49:47;;;;;;;1.80;1.17;;;;;;;17.61;52.71;95800.66;5071392;28;20819;-66
2021/05/09 06:52:12;;;;;;;1.27;1.17;;;;;;;17.65;51.48;95803.53;5073844;28;20171;-67
2021/05/09 06:54:38;;;;;;;1.63;1.53;;;;;;;17.88;50.42;95798.22;5073478;28;20219;-67
2021/05/09 06:57:04;;;;;;;1.50;1.40;;;;;;;18.23;50.32;95804.94;5072504;28;20215;-60
2021/05/09 06:59:32;;;;;;;2.00;1.20;;;;;;;18.46;50.98;95799.56;5073582;28;20190;-60
2021/05/09 07:01:57;;;;;;;1.60;1.43;;;;;;;18.27;49.72;95808.59;5073588;28;20171;-67
2021/05/09 07:04:23;;;;;;;1.60;1.50;;;;;;;18.42;48.78;95806.53;5071946;28;20444;-67
2021/05/09 07:06:48;;;;;;;1.43;1.33;;;;;;;18.68;50.13;95798.19;5073574;28;20178;-60
2021/05/09 07:09:14;;;;;;;1.40;1.30;;;;;;;18.98;49.70;95793.16;5073118;28;20273;-60
2021/05/09 07:11:39;;;;;;;1.43;1.10;;;;;;;18.86;49.21;95794.72;5072735;28;20163;-60
2021/05/09 07:14:05;;;;;;;1.80;1.27;;;;;;;18.79;48.26;95796.97;5073422;28;20525;-67
2021/05/09 07:16:32;;;;;;;1.30;1.20;;;;;;;18.72;48.14;95802.63;5073420;28;20162;-60
2021/05/09 07:18:57;;;;;;;1.50;1.40;;;;;;;18.87;47.44;95788.28;5071244;28;20436;-67
2021/05/09 07:21:28;;;;;;;1.97;1.00;;;;;;;18.92;47.11;95788.22;5073578;28;20413;-60
2021/05/09 07:23:54;;;;;;;1.00;1.00;;;;;;;19.11;46.86;95784.41;5073413;28;20167;-67
2021/05/09 07:26:19;;;;;;;1.57;1.23;;;;;;;19.25;46.58;95792.44;5071881;28;20825;-61
2021/05/09 07:28:46;;;;;;;1.40;1.30;;;;;;;19.34;45.25;95788.03;5072810;28;20190;-67
2021/05/09 07:31:12;;;;;;;1.20;1.10;;;;;;;19.48;45.99;95786.97;5073213;28;20622;-67
2021/05/09 07:33:38;;;;;;;1.23;1.20;;;;;;;19.35;45.48;95793.06;5071637;28;20849;-68
2021/05/09 07:36:03;;;;;;;1.37;1.27;;;;;;;19.69;45.69;95794.56;5073307;28;20440;-67
2021/05/09 07:38:29;;;;;;;1.30;1.20;;;;;;;19.88;45.16;95793.38;5072419;28;20170;-60
2021/05/09 07:40:55;;;;;;;1.37;1.27;;;;;;;19.90;44.17;95793.06;5072351;28;20166;-61
2021/05/09 07:43:20;;;;;;;1.50;1.23;;;;;;;20.23;43.97;95790.00;5054995;28;20263;-62
2021/05/09 07:45:46;;;;;;;1.00;1.00;;;;;;;20.35;43.36;95784.91;5064376;28;20933;-60
2021/05/09 07:48:11;;;;;;;1.30;1.20;;;;;;;20.38;43.11;95778.19;5071081;28;20592;-67
2021/05/09 07:50:39;;;;;;;1.73;1.40;;;;;;;20.57;43.40;95775.34;5072715;28;20202;-67
2021/05/09 07:53:04;;;;;;;1.43;1.20;;;;;;;20.59;42.94;95771.28;5073179;28;20637;-67
2021/05/09 07:55:30;;;;;;;1.50;1.20;;;;;;;20.88;42.20;95768.97;5073232;28;20405;-67
2021/05/09 07:57:56;;;;;;;1.37;1.10;;;;;;;20.94;41.10;95769.63;5069625;28;20175;-67
2021/05/09 08:00:23;;;;;;;2.03;1.30;;;;;;;20.85;41.90;95766.91;5053065;28;20444;-61
2021/05/09 08:02:49;;;;;;;1.00;1.00;;;;;;;20.96;41.51;95764.78;5052988;28;20159;-64
2021/05/09 08:05:15;;;;;;;1.50;1.40;;;;;;;21.19;41.12;95763.69;5068995;28;20810;-59
2021/05/09 08:08:08;;;;;;;1.43;1.20;;;;;;;21.15;40.87;95755.47;5072617;28;20409;-59
2021/05/09 08:10:36;;;;;;;1.20;1.10;;;;;;;21.24;40.34;95760.88;5071633;28;20899;-59
2021/05/09 08:13:05;;;;;;;1.30;1.20;;;;;;;21.37;40.39;95760.78;5071222;28;20427;-67
2021/05/09 08:15:30;;;;;;;1.33;1.10;;;;;;;21.41;40.06;95755.59;5071338;28;20417;-64
2021/05/09 08:17:56;;;;;;;1.83;1.23;;;;;;;21.50;39.71;95751.84;5063944;28;20924;-58
2021/05/09 08:20:22;;;;;;;1.47;1.30;;;;;;;21.85;39.90;95746.66;5052787;28;20207;-59
2021/05/09 08:22:47;;;;;;;2.50;1.20;;;;;;;21.93;40.12;95744.00;5064124;28;20527;-66
2021/05/09 08:25:15;;;;;;;2.10;1.30;;;;;;;22.35;40.41;95748.59;5072730;28;20199;-68
2021/05/09 08:27:41;;;;;;;1.80;1.60;;;;;;;22.47;42.80;95746.06;5072350;28;20163;-60
2021/05/09 08:30:07;;;;;;;1.40;1.30;;;;;;;22.79;41.54;95736.75;5071807;28;20456;-69
2021/05/09 08:32:33;;;;;;;1.83;1.53;;;;;;;23.04;42.18;95743.19;5072761;28;20664;-69
2021/05/09 08:34:59;;;;;;;1.40;1.30;;;;;;;23.21;42.67;95740.44;5071409;28;20420;-69
2021/05/09 08:37:25;;;;;;;1.90;1.70;;;;;;;23.31;43.01;95745.50;5066308;28;20178;-61
2021/05/09 08:39:51;;;;;;;1.63;1.47;;;;;;;23.38;43.32;95743.09;5071351;28;20445;-66
2021/05/09 08:42:17;;;;;;;1.57;1.47;;;;;;;23.19;40.09;95740.00;5064816;28;20436;-67
2021/05/09 08:44:50;;;;;;;1.20;1.20;;;;;;;23.34;40.23;95740.28;5076182;28;20240;-66
2021/05/09 08:47:21;;;;;;;2.27;1.10;;;;;;;22.91;35.47;95736.91;5075521;28;20783;-60
2021/05/09 08:49:48;;;;;;;4.73;1.30;;;;;;;23.23;38.24;95738.22;5075848;28;20460;-60
2021/05/09 08:52:16;;;;;;;1.93;1.30;;;;;;;23.10;34.21;95742.69;5076235;28;20408;-65
2021/05/09 08:54:42;;;;;;;1.30;1.20;;;;;;;23.22;34.73;95732.09;5073484;28;20425;-65
2021/05/09 08:57:07;;;;;;;2.50;2.00;;;;;;;23.63;35.07;95736.84;5075841;28;20411;-67
2021/05/09 08:59:33;;;;;;;1.50;1.40;;;;;;;23.83;35.25;95732.63;5073882;28;20209;-65
2021/05/09 09:01:59;;;;;;;1.30;1.20;;;;;;;23.38;33.77;95740.44;5074124;28;20177;-58
2021/05/09 09:04:24;;;;;;;1.20;1.20;;;;;;;23.59;33.77;95725.19;5075469;28;20417;-59
2021/05/09 09:06:53;;;;;;;1.53;1.30;;;;;;;23.60;33.10;95726.75;5074924;28;20213;-63
2021/05/09 09:09:23;;;;;;;1.47;1.37;;;;;;;23.77;33.10;95729.34;5061311;28;20211;-59
2021/05/09 09:11:50;;;;;;;1.43;1.33;;;;;;;23.87;33.67;95715.56;5063180;28;20420;-67
2021/05/09 09:14:16;;;;;;;2.53;1.20;;;;;;;24.25;33.77;95710.09;5075654;28;20466;-61
2021/05/09 09:16:41;;;;;;;1.73;1.30;;;;;;;24.43;33.15;95708.84;5073945;28;20436;-60
2021/05/09 09:19:11;;;;;;;1.70;1.60;;;;;;;24.33;32.48;95701.97;5074841;28;20553;-65
2021/05/09 09:21:37;;;;;;;2.23;1.37;;;;;;;24.27;31.94;95697.13;5066565;28;20634;-65
2021/05/09 09:24:06;;;;;;;1.40;1.30;;;;;;;24.68;32.49;95693.59;5055417;28;20417;-66
2021/05/09 09:26:47;;;;;;;1.43;1.10;;;;;;;25.04;32.01;95701.78;5061547;28;20202;-67
2021/05/09 09:29:22;;;;;;;1.63;1.10;;;;;;;24.83;31.46;95693.81;5074133;28;20456;-65
2021/05/09 09:31:52;;;;;;;1.30;1.20;;;;;;;24.91;31.62;95686.78;5073845;28;20428;-63
2021/05/09 09:34:17;;;;;;;5.13;1.63;;;;;;;25.11;31.11;95689.38;5083090;28;20485;-64
2021/05/09 09:36:43;;;;;;;1.73;1.33;;;;;;;25.28;30.68;95683.00;5095430;28;20804;-66
2021/05/09 09:39:10;;;;;;;2.83;1.50;;;;;;;25.34;31.30;95681.66;5092625;28;20194;-62
2021/05/09 09:41:49;;;;;;;1.37;1.10;;;;;;;25.37;30.21;95678.28;5091752;28;20182;-63
2021/05/09 09:44:16;;;;;;;1.30;1.20;;;;;;;25.51;30.07;95678.78;5091723;28;20469;-62
2021/05/09 09:46:52;;;;;;;1.77;1.67;;;;;;;25.63;30.83;95673.41;5071195;28;20425;-61
2021/05/09 09:49:30;;;;;;;1.40;1.30;;;;;;;25.66;30.00;95680.78;5070513;28;20468;-64
2021/05/09 09:52:00;;;;;;;1.47;1.20;;;;;;;25.79;30.46;95665.41;5070833;28;20473;-61
2021/05/09 09:54:46;;;;;;;1.63;1.53;;;;;;;25.64;30.27;95672.25;5071305;28;20412;-66
2021/05/09 09:57:38;;;;;;;1.43;1.20;;;;;;;25.88;30.31;95661.47;5059847;28;20436;-62
2021/05/09 10:00:10;;;;;;;1.43;1.00;;;;;;;26.32;30.29;95663.16;5068651;28;20441;-64
2021/05/09 10:02:38;;;;;;;3.87;1.53;;;;;;;25.91;29.31;95663.47;5070576;28;20424;-65
2021/05/09 10:05:04;;;;;;;1.50;1.40;;;;;;;26.47;30.00;95664.34;5057805;28;20428;-61
2021/05/09 10:07:30;;;;;;;1.43;1.33;;;;;;;26.58;28.57;95649.22;5070867;28;20895;-65
2021/05/09 10:09:56;;;;;;;1.30;1.20;;;;;;;26.05;28.27;95655.84;5069821;28;20487;-63
2021/05/09 10:12:23;;;;;;;1.53;1.37;;;;;;;25.92;29.05;95662.38;5063198;28;20203;-64
2021/05/09 10:14:49;;;;;;;1.43;1.33;;;;;;;25.76;29.29;95656.13;5050277;28;20402;-61
2021/05/09 10:17:15;;;;;;;1.50;1.20;;;;;;;25.76;28.73;95645.34;5063402;28;20567;-62
2021/05/09 10:19:43;;;;;;;1.30;1.30;;;;;;;26.08;28.75;95660.56;5070747;28;20251;-61
2021/05/09 10:22:28;;;;;;;1.17;0.97;;;;;;;26.15;28.77;95652.69;5070910;28;20175;-61
2021/05/09 10:24:54;;;;;;;1.20;1.20;;;;;;;26.43;28.31;95645.38;5068949;28;20848;-62
2021/05/09 10:27:33;;;;;;;1.77;1.10;;;;;;;26.44;27.86;95643.47;5072171;28;20922;-60
2021/05/09 10:29:58;;;;;;;2.77;1.73;;;;;;;26.77;27.92;95633.22;5074103;28;20543;-65
2021/05/09 10:32:26;;;;;;;1.47;1.37;;;;;;;26.82;28.08;95638.34;5059248;28;20501;-66
2021/05/09 10:34:58;;;;;;;1.20;1.10;;;;;;;26.82;27.22;95635.66;5054108;28;20160;-60
2021/05/09 10:37:47;;;;;;;1.90;0.97;;;;;;;26.66;27.46;95631.34;5053745;28;20405;-65
2021/05/09 10:40:18;;;;;;;1.30;1.20;;;;;;;26.72;27.60;95630.00;5055385;28;20440;-65
2021/05/09 10:42:43;;;;;;;1.60;0.93;;;;;;;26.95;27.32;95629.06;5053592;28;20459;-60
2021/05/09 10:45:09;;;;;;;1.10;1.10;;;;;;;26.88;27.58;95636.19;5053674;28;20407;-63
2021/05/09 10:47:34;;;;;;;2.13;1.40;;;;;;;26.68;27.36;95647.97;5055599;28;20210;-65
2021/05/09 10:50:17;;;;;;;1.30;1.00;;;;;;;26.73;27.32;95647.72;5067745;28;20211;-65
2021/05/09 10:52:45;;;;;;;1.50;1.27;;;;;;;26.80;27.05;95631.72;5072788;28;20222;-59
2021/05/09 10:55:35;;;;;;;1.37;1.10;;;;;;;26.94;27.26;95635.56;5053529;28;20944;-66
2021/05/09 10:58:01;;;;;;;3.60;1.50;;;;;;;27.11;28.00;95623.66;5052989;28;20831;-66
2021/05/09 11:00:27;;;;;;;1.20;1.20;;;;;;;27.18;27.31;95627.31;5053080;28;20422;-66
2021/05/09 11:02:52;;;;;;;0.83;0.83;;;;;;;27.16;27.05;95620.69;5052608;28;20406;-66
2021/05/09 11:05:18;;;;;;;1.20;1.10;;;;;;;27.21;27.02;95617.75;5053611;28;20297;-59
2021/05/09 11:07:44;;;;;;;1.00;0.93;;;;;;;27.64;27.59;95609.50;5053842;28;20661;-59
2021/05/09 11:10:40;;;;;;;1.20;0.97;;;;;;;28.10;27.83;95610.53;5053146;28;20602;-66
2021/05/09 11:13:06;;;;;;;1.30;1.20;;;;;;;28.28;25.35;95609.72;5053184;28;20506;-66
2021/05/09 11:15:32;;;;;;;3.13;1.00;;;;;;;28.21;25.81;95598.78;5053241;28;20425;-66
2021/05/09 11:17:57;;;;;;;1.30;1.20;;;;;;;28.10;26.02;95610.53;5052808;28;20762;-59
2021/05/09 11:20:23;;;;;;;1.37;1.00;;;;;;;27.97;25.22;95606.41;5063594;28;20555;-59
2021/05/09 11:22:57;;;;;;;1.30;1.20;;;;;;;28.43;27.60;95598.03;5073165;28;20165;-66
2021/05/09 11:25:32;;;;;;;1.30;1.20;;;;;;;28.57;25.55;95597.56;5073179;28;20400;-63
2021/05/09 11:27:58;;;;;;;2.00;1.10;;;;;;;28.72;24.50;95593.97;5066110;28;20421;-60
2021/05/09 11:30:34;;;;;;;1.90;1.10;;;;;;;28.55;24.23;95597.16;5059015;28;20449;-64
2021/05/09 11:33:00;;;;;;;2.20;1.10;;;;;;;28.65;25.02;95588.44;5071193;28;20170;-60